createdAt,value
2023-01-04T06:03:10.757Z,0.95
2023-01-04T06:05:37.433Z,1.05
2023-01-04T06:08:04.571Z,1.00
2023-01-04T06:10:31.205Z,0.70
2023-01-04T06:12:58.399Z,1.10
2023-01-04T06:15:24.991Z,0.70
2023-01-04T06:17:52.191Z,1.45
2023-01-04T06:20:18.772Z,0.70
2023-01-04T06:22:45.994Z,0.85
2023-01-04T06:25:12.584Z,0.75
2023-01-04T06:27:39.792Z,0.80
2023-01-04T06:30:07.158Z,1.05
2023-01-04T06:32:34.271Z,0.98
2023-01-04T06:35:00.875Z,0.73
2023-01-04T06:37:28.550Z,0.65
2023-01-04T06:39:55.127Z,0.73
2023-01-04T06:42:41.047Z,0.80
2023-01-04T06:45:08.003Z,0.80
2023-01-04T06:47:34.934Z,0.80
2023-01-04T06:50:01.607Z,0.68
2023-01-04T06:52:28.879Z,1.02
2023-01-04T06:54:55.425Z,0.80
2023-01-04T06:57:22.671Z,0.90
2023-01-04T06:59:49.272Z,0.80
2023-01-04T07:02:17.382Z,0.90
2023-01-04T07:04:44.219Z,0.90
2023-01-04T07:07:11.893Z,0.80
2023-01-04T07:09:38.628Z,0.90
2023-01-04T07:12:06.334Z,0.93
2023-01-04T07:14:35.291Z,1.20
2023-01-04T07:17:02.217Z,1.13
2023-01-04T07:19:28.820Z,0.95
2023-01-04T07:21:56.133Z,1.10
2023-01-04T07:24:28.092Z,0.98
2023-01-04T07:26:57.501Z,0.93
2023-01-04T07:29:24.107Z,0.90
2023-01-04T07:31:52.701Z,1.10
2023-01-04T07:34:22.005Z,0.90
2023-01-04T07:36:50.472Z,0.90
2023-01-04T07:39:18.293Z,1.17
2023-01-04T07:41:46.328Z,1.00
2023-01-04T07:44:15.971Z,1.10
2023-01-04T07:46:43.364Z,1.23
2023-01-04T07:49:17.845Z,1.15
2023-01-04T07:51:47.576Z,1.17
2023-01-04T07:54:15.651Z,0.98
2023-01-04T07:56:43.598Z,0.90
2023-01-04T07:59:11.988Z,0.90
2023-01-04T08:01:39.651Z,1.13
2023-01-04T08:04:07.688Z,1.13
2023-01-04T08:06:36.367Z,1.05
2023-01-04T08:09:04.339Z,1.00
2023-01-04T08:11:32.336Z,1.00
2023-01-04T08:13:58.931Z,0.80
2023-01-04T08:16:34.759Z,0.82
2023-01-04T08:19:14.566Z,0.90
2023-01-04T08:21:42.039Z,1.00
2023-01-04T08:24:11.222Z,0.80
2023-01-04T08:26:38.436Z,0.90
2023-01-04T08:29:05.038Z,1.08
2023-01-04T08:31:33.528Z,0.73
2023-01-04T08:34:03.398Z,0.60
2023-01-04T08:36:33.648Z,0.80
2023-01-04T08:39:02.706Z,1.10
2023-01-04T08:41:57.142Z,1.40
2023-01-04T08:44:22.152Z,1.48
2023-01-04T08:46:49.540Z,1.00
2023-01-04T08:49:16.507Z,0.90
2023-01-04T08:51:44.391Z,0.90
2023-01-04T08:54:11.758Z,1.00
2023-01-04T08:56:39.325Z,0.80
2023-01-04T08:59:06.520Z,0.82
2023-01-04T09:01:35.214Z,1.02
2023-01-04T09:04:02.299Z,1.00
2023-01-04T09:06:30.196Z,0.70
2023-01-04T09:08:57.703Z,1.10
2023-01-04T09:11:25.985Z,0.75
2023-01-04T09:14:09.427Z,0.70
2023-01-04T09:16:38.198Z,1.00
2023-01-04T09:19:06.682Z,1.10
2023-01-04T09:21:33.633Z,0.80
2023-01-04T09:24:00.576Z,1.20
2023-01-04T09:26:27.110Z,1.00
2023-01-04T09:28:55.782Z,1.10
2023-01-04T09:31:26.078Z,1.40
2023-01-04T09:36:40.705Z,1.10
2023-01-04T09:39:09.873Z,2.00
2023-01-04T09:41:48.028Z,1.30
2023-01-04T09:44:54.499Z,1.73
2023-01-04T09:47:39.789Z,1.40
2023-01-04T09:50:43.268Z,2.05
2023-01-04T09:53:16.823Z,1.85
2023-01-04T09:55:49.852Z,1.63
2023-01-04T09:58:36.458Z,1.73
2023-01-04T10:01:06.356Z,1.58
2023-01-04T10:06:02.546Z,1.20
2023-01-04T10:08:31.389Z,1.02
2023-01-04T10:11:35.978Z,1.38
2023-01-04T10:14:21.090Z,1.02
2023-01-04T10:17:23.821Z,1.10
2023-01-04T10:22:49.437Z,1.80
2023-01-04T10:25:16.587Z,1.60
2023-01-04T10:28:05.915Z,1.48
2023-01-04T10:33:18.639Z,1.00
2023-01-04T10:35:46.024Z,0.85
2023-01-04T10:38:25.567Z,1.00
2023-01-04T10:40:54.360Z,0.90
2023-01-04T10:44:10.988Z,1.05
2023-01-04T10:46:48.318Z,2.20
2023-01-04T10:49:35.149Z,1.20
2023-01-04T10:52:12.513Z,0.80
2023-01-04T10:54:47.915Z,0.95
2023-01-04T10:57:28.994Z,1.23
2023-01-04T11:00:04.176Z,1.05
2023-01-04T11:02:38.316Z,2.08
2023-01-04T11:05:12.862Z,1.48
2023-01-04T11:07:58.087Z,1.65
2023-01-04T11:10:37.855Z,1.10
2023-01-04T11:13:06.750Z,1.30
2023-01-04T11:15:34.768Z,1.20
2023-01-04T11:18:05.983Z,1.70
2023-01-04T11:20:37.742Z,1.90
2023-01-04T11:23:13.033Z,1.40
2023-01-04T11:25:50.461Z,1.40
2023-01-04T11:28:39.159Z,1.60
2023-01-04T11:31:19.895Z,1.40
2023-01-04T11:33:59.515Z,2.00
2023-01-04T11:36:44.598Z,1.98
2023-01-04T11:39:22.834Z,1.52
2023-01-04T11:42:04.010Z,2.28
2023-01-04T11:44:32.687Z,2.10
2023-01-04T11:47:08.263Z,1.80
2023-01-04T11:49:36.756Z,2.75
2023-01-04T11:52:08.782Z,1.53
2023-01-04T11:54:35.344Z,1.50
2023-01-04T11:57:11.087Z,1.50
2023-01-04T11:59:38.951Z,1.48
2023-01-04T12:02:59.670Z,1.30
2023-01-04T12:05:28.732Z,1.50
2023-01-04T12:07:59.161Z,1.50
2023-01-04T12:10:28.057Z,1.65
2023-01-04T12:12:56.821Z,1.50
2023-01-04T12:15:37.673Z,1.20
2023-01-04T12:18:13.162Z,1.25
2023-01-04T12:20:39.773Z,1.48
2023-01-04T12:23:07.195Z,1.58
2023-01-04T12:25:45.363Z,1.45
2023-01-04T12:28:41.664Z,1.42
2023-01-04T12:31:21.118Z,1.23
2023-01-04T12:34:15.646Z,1.48
2023-01-04T12:36:44.733Z,1.30
2023-01-04T12:39:14.768Z,1.30
2023-01-04T12:41:41.349Z,1.30
2023-01-04T12:44:40.767Z,1.70
2023-01-04T12:47:49.088Z,1.98
2023-01-04T12:50:18.852Z,1.73
2023-01-04T12:55:43.818Z,1.60
2023-01-04T13:04:41.793Z,1.50
2023-01-04T13:07:19.207Z,2.15
2023-01-04T13:09:52.062Z,1.80
2023-01-04T13:12:45.481Z,1.55
2023-01-04T13:15:44.309Z,1.60
2023-01-04T13:18:24.548Z,1.92
2023-01-04T13:20:51.224Z,2.25
2023-01-04T13:23:18.566Z,1.65
2023-01-04T13:25:45.121Z,2.05
2023-01-04T13:28:18.496Z,2.00
2023-01-04T13:30:46.682Z,2.40
2023-01-04T13:33:27.129Z,1.65
2023-01-04T13:36:10.760Z,2.13
2023-01-04T13:38:40.322Z,1.92
2023-01-04T13:41:22.745Z,2.10
2023-01-04T13:44:16.191Z,2.05
2023-01-04T13:46:43.700Z,2.50
2023-01-04T13:49:15.459Z,2.30
2023-01-04T13:51:42.092Z,2.20
2023-01-04T13:54:23.871Z,2.60
2023-01-04T13:56:55.644Z,2.58
2023-01-04T13:59:23.477Z,2.50
2023-01-04T14:01:50.760Z,4.18
2023-01-04T14:04:27.114Z,3.97
2023-01-04T14:06:57.815Z,5.95
2023-01-04T14:09:31.333Z,4.53
2023-01-04T14:12:07.242Z,4.28
2023-01-04T14:15:01.054Z,4.00
2023-01-04T14:17:35.284Z,5.55
2023-01-04T14:20:26.622Z,3.40
2023-01-04T14:22:56.156Z,3.42
2023-01-04T14:25:41.182Z,3.97
2023-01-04T14:28:24.471Z,4.32
2023-01-04T14:31:13.883Z,5.63
2023-01-04T14:33:52.501Z,4.93
2023-01-04T14:36:27.222Z,13.43
2023-01-04T14:39:12.957Z,5.35
2023-01-04T14:41:52.610Z,4.57
2023-01-04T14:44:21.973Z,5.85
2023-01-04T14:46:53.628Z,4.57
2023-01-04T14:49:22.457Z,4.57
2023-01-04T14:51:54.413Z,6.15
2023-01-04T14:54:25.602Z,5.97
2023-01-04T14:56:57.496Z,6.40
2023-01-04T14:59:25.801Z,5.65
2023-01-04T15:01:53.994Z,4.43
2023-01-04T15:04:21.818Z,6.53
2023-01-04T15:06:51.328Z,4.45
2023-01-04T15:09:18.591Z,5.43
2023-01-04T15:11:45.260Z,5.90
2023-01-04T15:14:12.690Z,5.43
2023-01-04T15:16:39.866Z,3.50
2023-01-04T15:19:07.331Z,2.95
2023-01-04T15:21:40.614Z,3.30
2023-01-04T15:24:10.055Z,3.47
2023-01-04T15:26:37.755Z,3.22
2023-01-04T15:29:07.069Z,4.20
2023-01-04T15:31:38.944Z,3.40
2023-01-04T15:34:06.730Z,3.40
2023-01-04T15:36:35.022Z,3.10
2023-01-04T15:39:02.303Z,3.20
2023-01-04T15:41:47.153Z,4.00
2023-01-04T15:44:14.431Z,3.67
2023-01-04T15:46:41.084Z,2.83
2023-01-04T15:49:13.323Z,2.72
2023-01-04T15:51:43.712Z,3.17
2023-01-04T15:54:10.965Z,3.55
2023-01-04T15:56:37.587Z,5.82
2023-01-04T15:59:04.984Z,5.65
2023-01-04T16:01:31.660Z,4.32
2023-01-04T16:03:58.933Z,4.00
2023-01-04T16:06:26.644Z,3.95
2023-01-04T16:08:53.930Z,4.25
2023-01-04T16:11:23.752Z,6.07
2023-01-04T16:13:52.692Z,4.88
2023-01-04T16:16:20.969Z,4.60
2023-01-04T16:18:50.175Z,5.03
2023-01-04T16:21:21.059Z,4.80
2023-01-04T16:24:03.935Z,4.40
2023-01-04T16:26:32.928Z,4.50
2023-01-04T16:29:01.064Z,4.75
2023-01-04T16:31:36.228Z,4.90
2023-01-04T16:34:05.065Z,4.40
2023-01-04T16:36:31.894Z,3.88
2023-01-04T16:38:59.046Z,5.40
2023-01-04T16:41:26.016Z,4.55
2023-01-04T16:43:59.736Z,4.35
2023-01-04T16:46:36.907Z,4.65
2023-01-04T16:49:05.694Z,4.22
2023-01-04T16:51:34.637Z,4.45
2023-01-04T16:54:03.729Z,4.88
2023-01-04T16:56:31.412Z,4.40
2023-01-04T16:58:58.685Z,4.22
2023-01-04T17:01:28.383Z,4.25
2023-01-04T17:03:58.852Z,3.67
2023-01-04T17:06:28.616Z,4.00
2023-01-04T17:08:57.209Z,4.40
2023-01-04T17:14:16.687Z,4.10
2023-01-04T17:16:43.938Z,4.03
2023-01-04T17:19:11.213Z,3.53
2023-01-04T17:21:37.761Z,4.60
2023-01-04T17:24:04.843Z,4.28
2023-01-04T17:26:33.179Z,3.38
2023-01-04T17:29:01.364Z,3.05
2023-01-04T17:31:31.210Z,4.38
2023-01-04T17:33:57.975Z,4.40
2023-01-04T17:36:25.548Z,5.07
2023-01-04T17:38:52.263Z,4.68
2023-01-04T17:41:22.455Z,4.65
2023-01-04T17:43:51.993Z,5.57
2023-01-04T17:46:23.419Z,6.25
2023-01-04T17:48:58.878Z,6.28
2023-01-04T17:51:40.250Z,6.57
2023-01-04T17:54:08.648Z,7.88
2023-01-04T17:56:37.076Z,9.23
2023-01-04T17:59:06.778Z,8.30
2023-01-04T18:01:35.386Z,8.25
2023-01-04T18:04:03.134Z,8.15
2023-01-04T18:06:33.324Z,7.88
2023-01-04T18:09:00.832Z,6.75
2023-01-04T18:11:28.218Z,6.57
2023-01-04T18:13:54.961Z,7.93
2023-01-04T18:16:28.066Z,6.80
2023-01-04T18:18:57.457Z,7.30
2023-01-04T18:29:33.717Z,5.57
2023-01-04T18:32:01.280Z,4.97
2023-01-04T18:34:28.001Z,5.28
2023-01-04T18:36:55.320Z,5.22
2023-01-04T18:39:22.291Z,5.40
2023-01-04T18:41:49.549Z,5.75
2023-01-04T18:44:32.790Z,5.40
2023-01-04T18:47:01.525Z,4.80
2023-01-04T18:49:28.157Z,4.93
2023-01-04T18:51:55.005Z,5.78
2023-01-04T18:54:21.874Z,5.63
2023-01-04T18:56:49.112Z,5.72
2023-01-04T18:59:18.749Z,5.72
2023-01-04T19:01:46.459Z,5.40
2023-01-04T19:04:16.058Z,5.45
2023-01-04T19:06:43.349Z,4.88
2023-01-04T19:09:10.157Z,5.38
2023-01-04T19:11:37.030Z,5.25
2023-01-04T19:14:04.080Z,4.72
2023-01-04T19:16:31.982Z,4.85
2023-01-04T19:18:59.685Z,4.40
2023-01-04T19:21:27.967Z,4.88
2023-01-04T19:23:54.813Z,4.13
2023-01-04T19:26:22.630Z,4.25
2023-01-04T19:28:49.930Z,4.80
2023-01-04T19:31:18.450Z,4.00
2023-01-04T19:33:45.829Z,5.03
2023-01-04T19:36:15.106Z,3.78
2023-01-04T19:38:42.166Z,4.53
2023-01-04T19:41:15.744Z,4.63
2023-01-04T19:43:42.921Z,4.28
2023-01-04T19:46:11.950Z,4.03
2023-01-04T19:48:39.336Z,4.57
2023-01-04T19:51:11.895Z,4.72
2023-01-04T19:53:39.122Z,5.60
2023-01-04T19:56:07.149Z,5.47
2023-01-04T19:58:34.229Z,4.88
2023-01-04T20:01:01.258Z,5.07
2023-01-04T20:03:27.977Z,3.78
2023-01-04T20:05:55.284Z,4.05
2023-01-04T20:08:22.500Z,4.38
2023-01-04T20:10:56.109Z,5.55
2023-01-04T20:13:23.279Z,4.20
2023-01-04T20:15:51.542Z,4.18
2023-01-04T20:18:18.856Z,3.50
2023-01-04T20:20:46.569Z,3.80
2023-01-04T20:23:14.930Z,4.10
2023-01-04T20:25:44.788Z,3.45
2023-01-04T20:28:12.123Z,3.20
2023-01-04T20:30:40.248Z,4.28
2023-01-04T20:33:07.764Z,3.70
2023-01-04T20:35:38.904Z,3.75
2023-01-04T20:38:05.461Z,3.25
2023-01-04T20:40:33.732Z,3.80
2023-01-04T20:43:18.865Z,5.43
2023-01-04T20:45:47.787Z,3.65
2023-01-04T20:48:15.825Z,4.65
2023-01-04T20:50:43.420Z,4.15
2023-01-04T20:53:11.318Z,3.70
2023-01-04T20:55:40.589Z,3.67
2023-01-04T20:58:11.804Z,2.80
2023-01-04T21:00:39.729Z,3.15
2023-01-04T21:03:08.148Z,3.13
2023-01-04T21:05:40.732Z,3.15
2023-01-04T21:08:07.946Z,4.05
2023-01-04T21:10:36.205Z,4.35
2023-01-04T21:13:03.750Z,5.18
2023-01-04T21:15:31.259Z,5.30
2023-01-04T21:17:57.911Z,5.82
2023-01-04T21:20:25.418Z,6.07
2023-01-04T21:22:51.964Z,7.00
2023-01-04T21:25:19.189Z,6.88
2023-01-04T21:27:45.752Z,6.13
